sensor_id;sensor_type;location;lat;lon;timestamp;pressure;altitude;pressure_sealevel;temperature;humidity
73566;BME280;61846;52.970;-3.168;2023-06-14T00:01:17;100937.96;;;20.73;36.25
73566;BME280;61846;52.970;-3.168;2023-06-14T00:03:42;100936.99;;;20.87;36.63
73566;BME280;61846;52.970;-3.168;2023-06-14T00:06:08;100936.28;;;21.45;34.76
73566;BME280;61846;52.970;-3.168;2023-06-14T00:08:33;100942.24;;;20.76;36.52
73566;BME280;61846;52.970;-3.168;2023-06-14T00:10:59;100945.55;;;20.76;36.00
73566;BME280;61846;52.970;-3.168;2023-06-14T00:13:24;100946.39;;;20.55;34.60
73566;BME280;61846;52.970;-3.168;2023-06-14T00:15:49;100946.79;;;20.59;34.20
73566;BME280;61846;52.970;-3.168;2023-06-14T00:18:14;100949.64;;;21.50;34.41
73566;BME280;61846;52.970;-3.168;2023-06-14T00:20:39;100951.34;;;20.76;34.66
73566;BME280;61846;52.970;-3.168;2023-06-14T00:23:05;100949.63;;;20.73;35.30
73566;BME280;61846;52.970;-3.168;2023-06-14T00:25:31;100948.87;;;20.52;35.68
73566;BME280;61846;52.970;-3.168;2023-06-14T00:27:57;100946.99;;;20.27;36.08
73566;BME280;61846;52.970;-3.168;2023-06-14T00:30:22;100944.06;;;20.73;34.88
73566;BME280;61846;52.970;-3.168;2023-06-14T00:32:47;100943.70;;;21.00;34.48
73566;BME280;61846;52.970;-3.168;2023-06-14T00:35:12;100943.34;;;20.28;36.59
73566;BME280;61846;52.970;-3.168;2023-06-14T00:37:38;100944.05;;;20.59;35.66
73566;BME280;61846;52.970;-3.168;2023-06-14T00:40:04;100946.22;;;19.81;35.95
73566;BME280;61846;52.970;-3.168;2023-06-14T00:42:28;100940.75;;;20.50;35.55
73566;BME280;61846;52.970;-3.168;2023-06-14T00:44:53;100944.28;;;20.19;36.19
73566;BME280;61846;52.970;-3.168;2023-06-14T00:47:19;100946.46;;;19.50;36.95
73566;BME280;61846;52.970;-3.168;2023-06-14T00:49:45;100944.82;;;19.18;37.81
73566;BME280;61846;52.970;-3.168;2023-06-14T00:52:09;100940.31;;;19.56;36.64
73566;BME280;61846;52.970;-3.168;2023-06-14T00:54:35;100938.66;;;19.71;37.08
73566;BME280;61846;52.970;-3.168;2023-06-14T00:57:00;100939.28;;;19.96;37.29
73566;BME280;61846;52.970;-3.168;2023-06-14T00:59:26;100941.53;;;19.99;37.58
73566;BME280;61846;52.970;-3.168;2023-06-14T01:01:51;100945.22;;;19.99;37.90
73566;BME280;61846;52.970;-3.168;2023-06-14T01:04:17;100941.73;;;20.57;37.12
73566;BME280;61846;52.970;-3.168;2023-06-14T01:06:48;100946.73;;;20.33;37.55
73566;BME280;61846;52.970;-3.168;2023-06-14T01:09:15;100945.56;;;19.73;37.40
73566;BME280;61846;52.970;-3.168;2023-06-14T01:11:38;100946.45;;;18.16;41.02
73566;BME280;61846;52.970;-3.168;2023-06-14T01:14:00;100950.97;;;18.28;40.98
73566;BME280;61846;52.970;-3.168;2023-06-14T01:16:24;100954.35;;;19.44;38.42
73566;BME280;61846;52.970;-3.168;2023-06-14T01:18:52;100952.64;;;19.70;37.57
73566;BME280;61846;52.970;-3.168;2023-06-14T01:21:21;100954.52;;;19.08;38.30
73566;BME280;61846;52.970;-3.168;2023-06-14T01:23:40;100955.91;;;19.66;36.53
73566;BME280;61846;52.970;-3.168;2023-06-14T01:26:06;100954.36;;;18.72;37.96
73566;BME280;61846;52.970;-3.168;2023-06-14T01:28:33;100956.84;;;19.04;38.52
73566;BME280;61846;52.970;-3.168;2023-06-14T01:31:00;100958.63;;;19.90;37.87
73566;BME280;61846;52.970;-3.168;2023-06-14T01:33:24;100957.30;;;19.82;38.57
73566;BME280;61846;52.970;-3.168;2023-06-14T01:35:50;100957.93;;;18.62;40.54
73566;BME280;61846;52.970;-3.168;2023-06-14T01:38:14;100958.71;;;18.92;40.14
73566;BME280;61846;52.970;-3.168;2023-06-14T01:40:39;100960.22;;;19.14;39.14
73566;BME280;61846;52.970;-3.168;2023-06-14T01:43:05;100961.52;;;18.41;40.22
73566;BME280;61846;52.970;-3.168;2023-06-14T01:45:29;100962.40;;;18.77;39.81
73566;BME280;61846;52.970;-3.168;2023-06-14T01:47:55;100962.81;;;18.99;38.91
73566;BME280;61846;52.970;-3.168;2023-06-14T01:50:20;100961.60;;;18.82;39.82
73566;BME280;61846;52.970;-3.168;2023-06-14T01:52:46;100961.90;;;18.10;41.10
73566;BME280;61846;52.970;-3.168;2023-06-14T01:55:11;100960.60;;;16.80;43.07
73566;BME280;61846;52.970;-3.168;2023-06-14T01:57:36;100959.13;;;17.56;41.34
73566;BME280;61846;52.970;-3.168;2023-06-14T02:00:01;100962.12;;;18.87;39.79
73566;BME280;61846;52.970;-3.168;2023-06-14T02:02:27;100967.29;;;18.35;40.41
73566;BME280;61846;52.970;-3.168;2023-06-14T02:04:52;100961.62;;;18.54;39.63
73566;BME280;61846;52.970;-3.168;2023-06-14T02:07:18;100963.23;;;18.74;38.99
73566;BME280;61846;52.970;-3.168;2023-06-14T02:09:43;100963.76;;;18.63;39.30
73566;BME280;61846;52.970;-3.168;2023-06-14T02:12:09;100963.61;;;17.77;41.49
73566;BME280;61846;52.970;-3.168;2023-06-14T02:14:34;100965.05;;;18.69;40.11
73566;BME280;61846;52.970;-3.168;2023-06-14T02:17:00;100964.61;;;17.82;41.61
73566;BME280;61846;52.970;-3.168;2023-06-14T02:19:25;100961.96;;;17.74;41.66
73566;BME280;61846;52.970;-3.168;2023-06-14T02:21:51;100968.22;;;17.82;41.75
73566;BME280;61846;52.970;-3.168;2023-06-14T02:24:16;100970.52;;;17.44;41.96
73566;BME280;61846;52.970;-3.168;2023-06-14T02:26:42;100972.62;;;17.45;41.85
73566;BME280;61846;52.970;-3.168;2023-06-14T02:29:07;100974.97;;;17.80;40.97
73566;BME280;61846;52.970;-3.168;2023-06-14T02:31:33;100978.40;;;16.80;43.51
73566;BME280;61846;52.970;-3.168;2023-06-14T02:33:58;100980.15;;;16.96;43.30
73566;BME280;61846;52.970;-3.168;2023-06-14T02:36:23;100982.17;;;17.22;42.27
73566;BME280;61846;52.970;-3.168;2023-06-14T02:38:49;100982.62;;;16.99;42.69
73566;BME280;61846;52.970;-3.168;2023-06-14T02:41:15;100984.36;;;17.71;41.17
73566;BME280;61846;52.970;-3.168;2023-06-14T02:43:40;100989.16;;;17.69;40.45
73566;BME280;61846;52.970;-3.168;2023-06-14T02:46:06;100990.69;;;16.95;42.86
73566;BME280;61846;52.970;-3.168;2023-06-14T02:48:32;100990.98;;;17.22;42.55
73566;BME280;61846;52.970;-3.168;2023-06-14T02:50:57;100989.49;;;17.71;40.79
73566;BME280;61846;52.970;-3.168;2023-06-14T02:53:22;100991.33;;;17.35;41.65
73566;BME280;61846;52.970;-3.168;2023-06-14T02:55:47;100989.85;;;17.48;41.87
73566;BME280;61846;52.970;-3.168;2023-06-14T02:58:13;100988.95;;;17.50;42.47
73566;BME280;61846;52.970;-3.168;2023-06-14T03:00:38;100991.56;;;17.06;42.47
73566;BME280;61846;52.970;-3.168;2023-06-14T03:03:04;100991.96;;;17.15;42.75
73566;BME280;61846;52.970;-3.168;2023-06-14T03:05:29;100992.27;;;16.83;43.21
73566;BME280;61846;52.970;-3.168;2023-06-14T03:07:55;100991.82;;;16.73;43.44
73566;BME280;61846;52.970;-3.168;2023-06-14T03:10:21;100993.49;;;15.79;44.45
73566;BME280;61846;52.970;-3.168;2023-06-14T03:12:46;100996.17;;;16.54;43.12
73566;BME280;61846;52.970;-3.168;2023-06-14T03:15:12;100998.39;;;16.51;43.23
73566;BME280;61846;52.970;-3.168;2023-06-14T03:17:37;100999.37;;;16.49;43.36
73566;BME280;61846;52.970;-3.168;2023-06-14T03:20:03;101001.94;;;16.38;43.49
73566;BME280;61846;52.970;-3.168;2023-06-14T03:22:28;101000.30;;;16.66;42.57
73566;BME280;61846;52.970;-3.168;2023-06-14T03:24:53;101003.68;;;17.18;42.40
73566;BME280;61846;52.970;-3.168;2023-06-14T03:27:18;101001.18;;;17.18;41.23
73566;BME280;61846;52.970;-3.168;2023-06-14T03:29:43;101003.97;;;17.11;41.65
73566;BME280;61846;52.970;-3.168;2023-06-14T03:32:09;101004.92;;;16.59;43.77
73566;BME280;61846;52.970;-3.168;2023-06-14T03:34:35;101003.42;;;16.76;42.47
73566;BME280;61846;52.970;-3.168;2023-06-14T03:37:00;101003.43;;;16.38;43.27
73566;BME280;61846;52.970;-3.168;2023-06-14T03:39:26;101004.99;;;16.43;43.77
73566;BME280;61846;52.970;-3.168;2023-06-14T03:41:51;101005.73;;;16.43;42.94
73566;BME280;61846;52.970;-3.168;2023-06-14T03:44:18;101008.63;;;16.39;43.20
73566;BME280;61846;52.970;-3.168;2023-06-14T03:46:42;101011.10;;;16.67;43.52
73566;BME280;61846;52.970;-3.168;2023-06-14T03:49:07;101008.73;;;15.96;43.98
73566;BME280;61846;52.970;-3.168;2023-06-14T03:51:33;101012.81;;;15.09;45.25
73566;BME280;61846;52.970;-3.168;2023-06-14T03:53:58;101010.89;;;16.04;43.67
73566;BME280;61846;52.970;-3.168;2023-06-14T03:56:23;101011.06;;;16.13;43.10
73566;BME280;61846;52.970;-3.168;2023-06-14T03:58:49;101012.59;;;15.56;43.75
73566;BME280;61846;52.970;-3.168;2023-06-14T04:01:15;101008.33;;;16.08;42.22
73566;BME280;61846;52.970;-3.168;2023-06-14T04:03:40;101008.23;;;16.19;42.14
73566;BME280;61846;52.970;-3.168;2023-06-14T04:06:05;101007.05;;;16.32;41.74
73566;BME280;61846;52.970;-3.168;2023-06-14T04:08:30;101005.65;;;16.28;42.35
73566;BME280;61846;52.970;-3.168;2023-06-14T04:10:56;101005.46;;;15.62;43.52
73566;BME280;61846;52.970;-3.168;2023-06-14T04:13:21;101003.04;;;15.70;42.40
73566;BME280;61846;52.970;-3.168;2023-06-14T04:15:47;100999.35;;;16.33;41.80
73566;BME280;61846;52.970;-3.168;2023-06-14T04:18:13;101001.16;;;16.18;42.73
73566;BME280;61846;52.970;-3.168;2023-06-14T04:20:38;101004.20;;;15.56;43.43
73566;BME280;61846;52.970;-3.168;2023-06-14T04:23:12;101003.61;;;15.90;42.35
73566;BME280;61846;52.970;-3.168;2023-06-14T04:25:30;101007.55;;;15.86;43.95
73566;BME280;61846;52.970;-3.168;2023-06-14T04:27:55;101006.43;;;16.43;42.66
73566;BME280;61846;52.970;-3.168;2023-06-14T04:30:20;101007.95;;;14.64;45.48
73566;BME280;61846;52.970;-3.168;2023-06-14T04:32:45;101008.23;;;15.84;42.57
73566;BME280;61846;52.970;-3.168;2023-06-14T04:35:11;101012.09;;;16.00;43.00
73566;BME280;61846;52.970;-3.168;2023-06-14T04:37:36;101016.33;;;15.81;43.55
73566;BME280;61846;52.970;-3.168;2023-06-14T04:40:01;101016.05;;;15.93;42.88
73566;BME280;61846;52.970;-3.168;2023-06-14T04:42:27;101016.33;;;15.85;42.73
73566;BME280;61846;52.970;-3.168;2023-06-14T04:44:52;101016.52;;;16.21;42.57
73566;BME280;61846;52.970;-3.168;2023-06-14T04:47:18;101018.50;;;16.07;43.03
73566;BME280;61846;52.970;-3.168;2023-06-14T04:49:44;101018.15;;;16.07;42.87
73566;BME280;61846;52.970;-3.168;2023-06-14T04:52:08;101016.45;;;16.21;42.26
73566;BME280;61846;52.970;-3.168;2023-06-14T04:54:34;101016.94;;;16.06;43.16
73566;BME280;61846;52.970;-3.168;2023-06-14T04:57:00;101015.52;;;16.17;42.51
73566;BME280;61846;52.970;-3.168;2023-06-14T04:59:25;101015.19;;;16.12;42.05
73566;BME280;61846;52.970;-3.168;2023-06-14T05:01:51;101019.63;;;15.89;42.01
73566;BME280;61846;52.970;-3.168;2023-06-14T05:04:17;101021.46;;;15.93;41.89
73566;BME280;61846;52.970;-3.168;2023-06-14T05:06:42;101019.63;;;15.96;40.92
73566;BME280;61846;52.970;-3.168;2023-06-14T05:09:07;101018.25;;;15.69;42.52
73566;BME280;61846;52.970;-3.168;2023-06-14T05:11:33;101018.30;;;15.49;42.78
73566;BME280;61846;52.970;-3.168;2023-06-14T05:13:58;101016.95;;;15.45;42.52
73566;BME280;61846;52.970;-3.168;2023-06-14T05:16:24;101012.70;;;14.63;43.69
73566;BME280;61846;52.970;-3.168;2023-06-14T05:18:50;101013.43;;;15.61;41.93
73566;BME280;61846;52.970;-3.168;2023-06-14T05:21:15;101011.41;;;15.08;42.30
73566;BME280;61846;52.970;-3.168;2023-06-14T05:23:40;101011.09;;;15.55;40.35
73566;BME280;61846;52.970;-3.168;2023-06-14T05:26:05;101014.01;;;15.73;40.01
73566;BME280;61846;52.970;-3.168;2023-06-14T05:28:31;101013.50;;;16.08;40.35
73566;BME280;61846;52.970;-3.168;2023-06-14T05:30:57;101015.53;;;15.21;41.48
73566;BME280;61846;52.970;-3.168;2023-06-14T05:33:23;101016.13;;;15.94;40.63
73566;BME280;61846;52.970;-3.168;2023-06-14T05:35:48;101015.04;;;16.26;39.38
73566;BME280;61846;52.970;-3.168;2023-06-14T05:38:14;101011.05;;;16.40;38.78
73566;BME280;61846;52.970;-3.168;2023-06-14T05:40:39;101004.46;;;16.79;39.65
73566;BME280;61846;52.970;-3.168;2023-06-14T05:43:04;101006.42;;;17.10;39.09
73566;BME280;61846;52.970;-3.168;2023-06-14T05:45:29;101004.48;;;16.97;39.13
73566;BME280;61846;52.970;-3.168;2023-06-14T05:47:54;101005.85;;;16.79;38.00
73566;BME280;61846;52.970;-3.168;2023-06-14T05:50:20;101008.63;;;16.57;38.14
73566;BME280;61846;52.970;-3.168;2023-06-14T05:52:46;101007.56;;;17.15;37.27
73566;BME280;61846;52.970;-3.168;2023-06-14T05:55:11;101006.64;;;17.52;35.66
73566;BME280;61846;52.970;-3.168;2023-06-14T05:57:37;101005.60;;;17.17;36.05
73566;BME280;61846;52.970;-3.168;2023-06-14T06:00:03;101006.59;;;17.40;36.35
73566;BME280;61846;52.970;-3.168;2023-06-14T06:02:27;101005.32;;;17.43;35.27
73566;BME280;61846;52.970;-3.168;2023-06-14T06:04:53;101003.69;;;17.89;35.04
73566;BME280;61846;52.970;-3.168;2023-06-14T06:07:18;101002.12;;;17.67;36.25
73566;BME280;61846;52.970;-3.168;2023-06-14T06:09:44;101002.56;;;17.81;35.68
73566;BME280;61846;52.970;-3.168;2023-06-14T06:12:09;101001.79;;;18.15;35.27
73566;BME280;61846;52.970;-3.168;2023-06-14T06:14:35;101002.83;;;18.07;35.69
73566;BME280;61846;52.970;-3.168;2023-06-14T06:17:00;101002.17;;;18.07;35.84
73566;BME280;61846;52.970;-3.168;2023-06-14T06:19:25;101002.36;;;18.08;35.64
73566;BME280;61846;52.970;-3.168;2023-06-14T06:21:50;101003.61;;;18.55;35.73
73566;BME280;61846;52.970;-3.168;2023-06-14T06:24:16;101005.22;;;18.20;35.68
73566;BME280;61846;52.970;-3.168;2023-06-14T06:26:41;101002.57;;;18.74;35.69
73566;BME280;61846;52.970;-3.168;2023-06-14T06:29:07;101003.43;;;18.44;36.24
73566;BME280;61846;52.970;-3.168;2023-06-14T06:31:32;100998.84;;;18.88;35.13
73566;BME280;61846;52.970;-3.168;2023-06-14T06:33:57;101001.98;;;19.00;34.69
73566;BME280;61846;52.970;-3.168;2023-06-14T06:36:23;101005.54;;;19.01;35.09
73566;BME280;61846;52.970;-3.168;2023-06-14T06:38:48;101008.74;;;19.21;33.51
73566;BME280;61846;52.970;-3.168;2023-06-14T06:41:14;101010.12;;;19.55;33.86
73566;BME280;61846;52.970;-3.168;2023-06-14T06:43:38;101005.99;;;19.74;33.48
73566;BME280;61846;52.970;-3.168;2023-06-14T06:46:04;101004.16;;;19.51;34.95
73566;BME280;61846;52.970;-3.168;2023-06-14T06:48:29;101002.52;;;18.67;34.50
73566;BME280;61846;52.970;-3.168;2023-06-14T06:50:55;101000.16;;;18.96;32.13
73566;BME280;61846;52.970;-3.168;2023-06-14T06:53:20;100997.91;;;18.76;32.05
73566;BME280;61846;52.970;-3.168;2023-06-14T06:55:46;100997.28;;;19.62;30.74
73566;BME280;61846;52.970;-3.168;2023-06-14T06:58:12;100998.65;;;17.50;33.20
73566;BME280;61846;52.970;-3.168;2023-06-14T07:00:36;100998.63;;;18.49;32.18
73566;BME280;61846;52.970;-3.168;2023-06-14T07:03:01;100997.45;;;19.27;30.89
73566;BME280;61846;52.970;-3.168;2023-06-14T07:05:27;101000.15;;;19.60;30.76
73566;BME280;61846;52.970;-3.168;2023-06-14T07:07:52;100998.59;;;19.64;29.88
73566;BME280;61846;52.970;-3.168;2023-06-14T07:10:17;100997.35;;;19.78;29.32
73566;BME280;61846;52.970;-3.168;2023-06-14T07:12:42;101000.91;;;19.63;29.90
73566;BME280;61846;52.970;-3.168;2023-06-14T07:15:09;100998.62;;;19.34;30.25
73566;BME280;61846;52.970;-3.168;2023-06-14T07:17:34;101000.94;;;19.23;30.21
73566;BME280;61846;52.970;-3.168;2023-06-14T07:19:58;100999.90;;;20.53;29.13
73566;BME280;61846;52.970;-3.168;2023-06-14T07:22:24;101001.95;;;20.66;28.97
73566;BME280;61846;52.970;-3.168;2023-06-14T07:24:50;101002.98;;;20.11;29.05
73566;BME280;61846;52.970;-3.168;2023-06-14T07:27:15;100998.48;;;20.68;29.02
73566;BME280;61846;52.970;-3.168;2023-06-14T07:29:41;100999.73;;;21.20;28.64
73566;BME280;61846;52.970;-3.168;2023-06-14T07:32:07;100998.43;;;21.12;28.42
73566;BME280;61846;52.970;-3.168;2023-06-14T07:34:31;101000.28;;;21.47;27.67
73566;BME280;61846;52.970;-3.168;2023-06-14T07:36:56;101001.71;;;21.96;28.06
73566;BME280;61846;52.970;-3.168;2023-06-14T07:39:22;101004.51;;;21.38;27.84
73566;BME280;61846;52.970;-3.168;2023-06-14T07:41:47;101002.93;;;21.96;28.75
73566;BME280;61846;52.970;-3.168;2023-06-14T07:44:12;101004.81;;;21.76;27.71
73566;BME280;61846;52.970;-3.168;2023-06-14T07:46:38;101007.24;;;20.81;28.81
73566;BME280;61846;52.970;-3.168;2023-06-14T07:49:03;101007.93;;;20.83;27.93
73566;BME280;61846;52.970;-3.168;2023-06-14T07:51:28;101006.24;;;20.93;27.55
73566;BME280;61846;52.970;-3.168;2023-06-14T07:53:54;101007.17;;;21.51;27.61
73566;BME280;61846;52.970;-3.168;2023-06-14T07:56:19;101003.14;;;22.19;26.97
73566;BME280;61846;52.970;-3.168;2023-06-14T07:58:44;101005.23;;;21.55;27.56
73566;BME280;61846;52.970;-3.168;2023-06-14T08:01:10;100999.47;;;22.68;27.97
73566;BME280;61846;52.970;-3.168;2023-06-14T08:03:35;101001.01;;;22.35;26.04
73566;BME280;61846;52.970;-3.168;2023-06-14T08:06:01;101000.33;;;21.95;26.84
73566;BME280;61846;52.970;-3.168;2023-06-14T08:08:26;101004.10;;;22.11;26.95
73566;BME280;61846;52.970;-3.168;2023-06-14T08:10:51;101002.37;;;20.99;27.58
73566;BME280;61846;52.970;-3.168;2023-06-14T08:13:16;100999.94;;;21.64;27.45
73566;BME280;61846;52.970;-3.168;2023-06-14T08:15:42;100998.40;;;21.17;27.46
73566;BME280;61846;52.970;-3.168;2023-06-14T08:18:07;100996.95;;;21.67;26.65
73566;BME280;61846;52.970;-3.168;2023-06-14T08:20:32;100996.90;;;22.32;26.38
73566;BME280;61846;52.970;-3.168;2023-06-14T08:22:58;100997.82;;;22.03;26.18
73566;BME280;61846;52.970;-3.168;2023-06-14T08:25:23;100994.15;;;22.29;26.09
73566;BME280;61846;52.970;-3.168;2023-06-14T08:27:48;100994.83;;;22.96;26.13
73566;BME280;61846;52.970;-3.168;2023-06-14T08:30:14;100995.05;;;23.64;25.88
73566;BME280;61846;52.970;-3.168;2023-06-14T08:32:39;100998.56;;;23.54;25.22
73566;BME280;61846;52.970;-3.168;2023-06-14T08:35:05;101006.45;;;23.36;26.03
73566;BME280;61846;52.970;-3.168;2023-06-14T08:37:30;101005.56;;;23.39;24.55
73566;BME280;61846;52.970;-3.168;2023-06-14T08:39:55;101002.63;;;23.66;26.42
73566;BME280;61846;52.970;-3.168;2023-06-14T08:42:21;100999.18;;;23.26;24.73
73566;BME280;61846;52.970;-3.168;2023-06-14T08:44:46;100996.81;;;23.35;25.35
73566;BME280;61846;52.970;-3.168;2023-06-14T08:47:11;101000.91;;;23.07;25.21
73566;BME280;61846;52.970;-3.168;2023-06-14T08:49:38;101001.61;;;20.42;27.79
73566;BME280;61846;52.970;-3.168;2023-06-14T08:52:02;100997.25;;;22.19;25.60
73566;BME280;61846;52.970;-3.168;2023-06-14T08:54:28;100996.56;;;23.58;25.97
73566;BME280;61846;52.970;-3.168;2023-06-14T08:56:52;100993.23;;;22.30;25.76
73566;BME280;61846;52.970;-3.168;2023-06-14T08:59:18;100999.21;;;24.04;25.61
73566;BME280;61846;52.970;-3.168;2023-06-14T09:01:43;100995.61;;;23.19;24.74
73566;BME280;61846;52.970;-3.168;2023-06-14T09:04:08;101002.85;;;23.07;25.23
73566;BME280;61846;52.970;-3.168;2023-06-14T09:06:34;101001.51;;;24.23;23.95
73566;BME280;61846;52.970;-3.168;2023-06-14T09:08:59;101000.16;;;23.70;24.85
73566;BME280;61846;52.970;-3.168;2023-06-14T09:11:25;101001.18;;;21.92;24.82
73566;BME280;61846;52.970;-3.168;2023-06-14T09:13:50;100992.61;;;23.81;24.74
73566;BME280;61846;52.970;-3.168;2023-06-14T09:16:16;101001.16;;;24.30;24.43
73566;BME280;61846;52.970;-3.168;2023-06-14T09:18:42;101000.04;;;24.09;24.47
73566;BME280;61846;52.970;-3.168;2023-06-14T09:21:06;101003.04;;;24.39;23.62
73566;BME280;61846;52.970;-3.168;2023-06-14T09:23:34;100999.23;;;24.67;23.41
73566;BME280;61846;52.970;-3.168;2023-06-14T09:25:57;100999.31;;;24.87;23.38
73566;BME280;61846;52.970;-3.168;2023-06-14T09:28:27;100998.86;;;24.99;25.03
73566;BME280;61846;52.970;-3.168;2023-06-14T09:30:47;101003.03;;;24.42;23.63
73566;BME280;61846;52.970;-3.168;2023-06-14T09:33:17;101011.49;;;23.31;23.99
73566;BME280;61846;52.970;-3.168;2023-06-14T09:35:38;101003.40;;;23.04;25.70
73566;BME280;61846;52.970;-3.168;2023-06-14T09:38:03;101008.31;;;22.51;25.50
73566;BME280;61846;52.970;-3.168;2023-06-14T09:40:34;101010.84;;;24.10;24.61
73566;BME280;61846;52.970;-3.168;2023-06-14T09:42:54;101005.87;;;24.43;24.98
73566;BME280;61846;52.970;-3.168;2023-06-14T09:45:20;101010.60;;;23.32;25.25
73566;BME280;61846;52.970;-3.168;2023-06-14T09:47:45;101003.92;;;23.64;24.73
73566;BME280;61846;52.970;-3.168;2023-06-14T09:50:10;101002.75;;;25.30;23.09
73566;BME280;61846;52.970;-3.168;2023-06-14T09:52:35;101000.77;;;24.94;23.65
73566;BME280;61846;52.970;-3.168;2023-06-14T09:55:00;101005.89;;;21.43;26.40
73566;BME280;61846;52.970;-3.168;2023-06-14T09:57:26;101005.59;;;23.46;25.60
73566;BME280;61846;52.970;-3.168;2023-06-14T09:59:53;100999.04;;;22.61;26.81
73566;BME280;61846;52.970;-3.168;2023-06-14T10:02:22;100994.42;;;23.69;26.64
73566;BME280;61846;52.970;-3.168;2023-06-14T10:04:46;100998.10;;;23.64;25.23
73566;BME280;61846;52.970;-3.168;2023-06-14T10:07:07;100994.84;;;23.66;25.45
73566;BME280;61846;52.970;-3.168;2023-06-14T10:09:34;100993.46;;;22.98;26.64
73566;BME280;61846;52.970;-3.168;2023-06-14T10:11:58;100992.03;;;23.23;25.33
73566;BME280;61846;52.970;-3.168;2023-06-14T10:14:23;100983.26;;;25.24;23.92
73566;BME280;61846;52.970;-3.168;2023-06-14T10:16:55;100989.65;;;25.08;24.80
73566;BME280;61846;52.970;-3.168;2023-06-14T10:19:18;100983.26;;;25.76;23.97
73566;BME280;61846;52.970;-3.168;2023-06-14T10:21:46;100985.47;;;25.56;23.76
73566;BME280;61846;52.970;-3.168;2023-06-14T10:24:07;100990.25;;;25.19;23.81
73566;BME280;61846;52.970;-3.168;2023-06-14T10:26:30;100993.04;;;24.67;23.35
73566;BME280;61846;52.970;-3.168;2023-06-14T10:28:57;100991.40;;;24.00;23.91
73566;BME280;61846;52.970;-3.168;2023-06-14T10:31:20;100990.54;;;23.59;25.06
73566;BME280;61846;52.970;-3.168;2023-06-14T10:33:49;100991.91;;;24.27;25.70
73566;BME280;61846;52.970;-3.168;2023-06-14T10:36:25;100993.90;;;25.09;23.64
73566;BME280;61846;52.970;-3.168;2023-06-14T10:38:36;100993.04;;;24.76;23.78
73566;BME280;61846;52.970;-3.168;2023-06-14T10:41:03;100988.46;;;25.21;22.76
73566;BME280;61846;52.970;-3.168;2023-06-14T10:43:27;100984.52;;;25.62;23.78
73566;BME280;61846;52.970;-3.168;2023-06-14T10:46:13;100985.58;;;25.85;22.37
73566;BME280;61846;52.970;-3.168;2023-06-14T10:50:47;100983.90;;;24.55;23.73
73566;BME280;61846;52.970;-3.168;2023-06-14T10:55:35;100975.73;;;26.66;22.22
73566;BME280;61846;52.970;-3.168;2023-06-14T10:58:00;100971.40;;;26.59;21.82
73566;BME280;61846;52.970;-3.168;2023-06-14T11:00:28;100983.50;;;25.35;22.83
73566;BME280;61846;52.970;-3.168;2023-06-14T11:05:23;100971.09;;;26.52;22.18
73566;BME280;61846;52.970;-3.168;2023-06-14T11:07:52;100969.78;;;27.53;21.67
73566;BME280;61846;52.970;-3.168;2023-06-14T11:10:17;100969.54;;;27.51;21.95
73566;BME280;61846;52.970;-3.168;2023-06-14T11:12:35;100967.20;;;27.58;21.94
73566;BME280;61846;52.970;-3.168;2023-06-14T11:14:59;100963.58;;;27.27;20.67
73566;BME280;61846;52.970;-3.168;2023-06-14T11:17:24;100963.19;;;26.42;23.75
73566;BME280;61846;52.970;-3.168;2023-06-14T11:19:49;100959.58;;;27.97;20.59
73566;BME280;61846;52.970;-3.168;2023-06-14T11:22:15;100955.18;;;28.40;21.28
73566;BME280;61846;52.970;-3.168;2023-06-14T11:24:40;100953.55;;;27.58;22.96
73566;BME280;61846;52.970;-3.168;2023-06-14T11:27:05;100957.30;;;27.01;22.09
73566;BME280;61846;52.970;-3.168;2023-06-14T11:29:30;100957.20;;;27.98;21.31
73566;BME280;61846;52.970;-3.168;2023-06-14T11:31:56;100954.64;;;27.73;22.02
73566;BME280;61846;52.970;-3.168;2023-06-14T11:34:21;100947.18;;;28.90;19.97
73566;BME280;61846;52.970;-3.168;2023-06-14T11:36:46;100952.32;;;27.40;21.33
73566;BME280;61846;52.970;-3.168;2023-06-14T11:39:12;100947.43;;;28.30;22.55
73566;BME280;61846;52.970;-3.168;2023-06-14T11:41:38;100950.01;;;28.41;23.20
73566;BME280;61846;52.970;-3.168;2023-06-14T11:44:02;100946.98;;;28.53;21.36
73566;BME280;61846;52.970;-3.168;2023-06-14T11:46:28;100946.85;;;28.13;21.05
73566;BME280;61846;52.970;-3.168;2023-06-14T11:48:53;100945.65;;;28.40;20.73
73566;BME280;61846;52.970;-3.168;2023-06-14T11:51:19;100944.69;;;29.96;22.70
73566;BME280;61846;52.970;-3.168;2023-06-14T11:53:45;100940.24;;;29.67;21.38
73566;BME280;61846;52.970;-3.168;2023-06-14T11:56:10;100938.88;;;28.57;20.48
73566;BME280;61846;52.970;-3.168;2023-06-14T11:58:35;100937.72;;;29.63;19.55
73566;BME280;61846;52.970;-3.168;2023-06-14T12:01:03;100933.40;;;28.37;21.20
73566;BME280;61846;52.970;-3.168;2023-06-14T12:03:27;100932.08;;;29.26;19.06
73566;BME280;61846;52.970;-3.168;2023-06-14T12:06:03;100931.72;;;29.93;19.57
73566;BME280;61846;52.970;-3.168;2023-06-14T12:08:17;100932.77;;;29.74;19.74
73566;BME280;61846;52.970;-3.168;2023-06-14T12:10:43;100931.75;;;26.75;21.07
73566;BME280;61846;52.970;-3.168;2023-06-14T12:13:08;100932.79;;;28.22;22.29
73566;BME280;61846;52.970;-3.168;2023-06-14T12:15:33;100927.22;;;29.32;20.25
73566;BME280;61846;52.970;-3.168;2023-06-14T12:17:58;100928.41;;;29.66;20.63
73566;BME280;61846;52.970;-3.168;2023-06-14T12:20:29;100927.44;;;30.66;19.86
73566;BME280;61846;52.970;-3.168;2023-06-14T12:22:51;100924.16;;;30.92;19.21
73566;BME280;61846;52.970;-3.168;2023-06-14T12:25:25;100927.30;;;29.53;19.10
73566;BME280;61846;52.970;-3.168;2023-06-14T12:27:41;100924.56;;;29.66;19.62
73566;BME280;61846;52.970;-3.168;2023-06-14T12:30:08;100925.30;;;29.67;19.03
73566;BME280;61846;52.970;-3.168;2023-06-14T12:32:31;100923.20;;;29.57;18.66
73566;BME280;61846;52.970;-3.168;2023-06-14T12:34:57;100920.69;;;30.01;18.36
73566;BME280;61846;52.970;-3.168;2023-06-14T12:37:22;100916.92;;;30.17;18.62